Time;durP1;ratioP1;P1;durP2;ratioP2;P2;SDS_P1;SDS_P2;PMS_P1;PMS_P2;Temp;Humidity;BMP_temperature;BMP_pressure;BME280_temperature;BME280_humidity;BME280_pressure;Samples;Min_cycle;Max_cycle;Signal;HPM_P1;HPM_P2
2024/01/07 00:01:38;;;;;;;2.30;2.20;;;-2.00;99.90;;;;;;6189520;23;20197;-83
2024/01/07 00:04:07;;;;;;;1.42;1.38;;;-2.10;99.90;;;;;;6189424;23;20255;-84
2024/01/07 00:06:36;;;;;;;4.15;3.75;;;-2.10;99.90;;;;;;6189312;23;20244;-82
2024/01/07 00:09:07;;;;;;;4.60;1.35;;;-2.00;99.90;;;;;;6188631;23;20500;-83
2024/01/07 00:11:34;;;;;;;2.67;2.58;;;-2.00;99.90;;;;;;6190684;23;20201;-82
2024/01/07 00:14:01;;;;;;;2.85;2.03;;;-2.00;99.90;;;;;;6187949;23;20188;-85
2024/01/07 00:16:28;;;;;;;1.92;1.83;;;-2.00;99.90;;;;;;6189971;23;20177;-81
2024/01/07 00:18:57;;;;;;;2.10;2.00;;;-2.00;99.90;;;;;;6189397;23;20189;-83
2024/01/07 00:21:25;;;;;;;0.88;0.88;;;-2.00;99.90;;;;;;6189588;23;20512;-83
2024/01/07 00:23:52;;;;;;;1.20;1.15;;;-2.00;99.90;;;;;;6189603;23;20403;-80
2024/01/07 00:26:21;;;;;;;3.97;3.58;;;-2.00;99.90;;;;;;6188136;23;20470;-80
2024/01/07 00:28:48;;;;;;;1.80;1.70;;;-2.10;99.90;;;;;;6188361;23;20177;-79
2024/01/07 00:31:17;;;;;;;5.70;3.20;;;-2.10;99.90;;;;;;6188951;23;20195;-80
2024/01/07 00:33:44;;;;;;;1.05;1.05;;;-2.20;99.90;;;;;;6188982;23;20216;-84
2024/01/07 00:36:12;;;;;;;1.08;1.08;;;-2.40;99.90;;;;;;6189575;23;20219;-81
2024/01/07 00:38:39;;;;;;;2.78;2.67;;;-2.30;99.90;;;;;;6187657;23;20552;-81
2024/01/07 00:41:06;;;;;;;1.75;1.65;;;-2.40;99.90;;;;;;6192047;23;20179;-80
2024/01/07 00:43:33;;;;;;;2.80;2.60;;;-2.40;99.90;;;;;;6193460;23;20185;-83
2024/01/07 00:46:02;;;;;;;4.00;3.70;;;-2.30;99.90;;;;;;6192187;23;20192;-81
2024/01/07 00:48:31;;;;;;;1.33;1.33;;;-2.20;99.90;;;;;;6192199;23;20200;-82
2024/01/07 00:51:00;;;;;;;1.88;1.77;;;-2.20;99.90;;;;;;6192378;23;20190;-82
2024/01/07 00:53:28;;;;;;;2.30;2.10;;;-2.20;99.90;;;;;;6192929;23;20185;-84
2024/01/07 00:55:55;;;;;;;1.27;1.17;;;-2.10;99.90;;;;;;6192466;23;20192;-81
2024/01/07 00:58:24;;;;;;;1.02;1.02;;;-2.30;99.90;;;;;;6192357;23;20188;-80
2024/01/07 01:00:53;;;;;;;3.67;3.45;;;-2.40;99.90;;;;;;6210079;23;20196;-84
2024/01/07 01:03:22;;;;;;;2.75;2.65;;;-2.30;99.90;;;;;;6213863;23;20197;-82
2024/01/07 01:05:51;;;;;;;3.22;2.72;;;-2.40;99.90;;;;;;6213420;23;20181;-83
2024/01/07 01:08:18;;;;;;;4.32;3.95;;;-2.40;99.90;;;;;;6200190;23;20207;-80
2024/01/07 01:10:46;;;;;;;2.13;1.67;;;-2.30;99.90;;;;;;6192546;23;20185;-81
2024/01/07 01:13:20;;;;;;;3.78;2.13;;;-2.30;99.90;;;;;;6191729;23;20169;-81
2024/01/07 01:15:47;;;;;;;1.05;1.05;;;-2.40;99.90;;;;;;6190529;23;20496;-80
2024/01/07 01:18:15;;;;;;;0.60;0.60;;;-2.40;99.90;;;;;;6189922;23;20185;-81
2024/01/07 01:20:43;;;;;;;2.45;2.10;;;-2.40;99.90;;;;;;6189640;23;20185;-82
2024/01/07 01:23:10;;;;;;;1.75;1.65;;;-2.50;99.90;;;;;;6190961;23;20229;-80
2024/01/07 01:25:39;;;;;;;2.05;1.95;;;-2.40;99.90;;;;;;6189819;23;20209;-80
2024/01/07 01:28:06;;;;;;;1.20;1.20;;;-2.50;99.90;;;;;;6190640;23;20185;-80
2024/01/07 01:30:38;;;;;;;1.55;1.45;;;-2.40;99.90;;;;;;6191406;23;20177;-80
2024/01/07 01:33:06;;;;;;;4.43;2.63;;;-2.50;99.90;;;;;;6189510;23;20482;-80
2024/01/07 01:35:33;;;;;;;4.15;3.95;;;-2.50;99.90;;;;;;6190337;23;20191;-79
2024/01/07 01:38:01;;;;;;;2.40;2.25;;;-2.60;99.90;;;;;;6190750;23;20184;-79
2024/01/07 01:40:28;;;;;;;1.40;1.30;;;-2.50;99.90;;;;;;6190817;23;20715;-79
2024/01/07 01:42:55;;;;;;;2.30;2.20;;;-2.40;99.90;;;;;;6189992;23;20426;-82
2024/01/07 01:45:22;;;;;;;0.88;0.88;;;-2.40;99.90;;;;;;6190763;23;20220;-79
2024/01/07 01:47:49;;;;;;;2.78;2.63;;;-2.40;99.90;;;;;;6190583;23;20181;-81
2024/01/07 01:50:17;;;;;;;2.15;2.05;;;-2.50;99.90;;;;;;6190142;23;20524;-80
2024/01/07 01:52:45;;;;;;;1.50;1.45;;;-2.40;99.90;;;;;;6188939;23;20172;-81
2024/01/07 01:55:14;;;;;;;0.77;0.77;;;-2.40;99.90;;;;;;6190314;23;20187;-79
2024/01/07 01:57:44;;;;;;;4.55;3.22;;;-2.60;99.90;;;;;;6192296;23;20188;-81
2024/01/07 02:00:12;;;;;;;7.45;1.92;;;-2.50;99.90;;;;;;6194036;23;20244;-84
2024/01/07 02:02:41;;;;;;;1.33;1.33;;;-2.50;99.90;;;;;;6191972;23;20247;-83
2024/01/07 02:05:09;;;;;;;1.25;1.25;;;-2.50;99.90;;;;;;6194073;23;20207;-78
2024/01/07 02:07:38;;;;;;;1.83;1.77;;;-2.60;99.90;;;;;;6193299;23;20559;-80
2024/01/07 02:10:05;;;;;;;0.95;0.95;;;-2.60;99.90;;;;;;6190547;23;20450;-79
2024/01/07 02:12:36;;;;;;;0.80;0.80;;;-2.50;99.90;;;;;;6191787;23;20207;-78
2024/01/07 02:15:04;;;;;;;0.70;0.70;;;-2.50;99.90;;;;;;6189794;23;20208;-80
2024/01/07 02:17:33;;;;;;;1.00;0.90;;;-2.50;99.90;;;;;;6201739;23;20168;-82
2024/01/07 02:20:00;;;;;;;3.03;2.92;;;-2.50;99.90;;;;;;6213181;23;20177;-79
2024/01/07 02:22:27;;;;;;;2.80;2.65;;;-2.60;99.90;;;;;;6211170;23;20211;-85
2024/01/07 02:24:54;;;;;;;0.82;0.82;;;-2.60;99.90;;;;;;6195749;23;20185;-80
2024/01/07 02:27:21;;;;;;;1.60;1.60;;;-2.70;99.90;;;;;;6191307;23;20877;-78
2024/01/07 02:29:48;;;;;;;2.78;2.63;;;-2.70;99.90;;;;;;6190998;23;20173;-79
2024/01/07 02:32:15;;;;;;;1.85;1.73;;;-2.70;99.90;;;;;;6207648;23;20172;-78
2024/01/07 02:34:43;;;;;;;0.90;0.90;;;-2.70;99.90;;;;;;6206782;23;20195;-83
2024/01/07 02:37:11;;;;;;;1.40;1.40;;;-2.70;99.90;;;;;;6192590;23;20417;-81
2024/01/07 02:39:39;;;;;;;6.82;1.55;;;-2.70;99.90;;;;;;6190458;23;20251;-78
2024/01/07 02:42:06;;;;;;;1.50;1.50;;;-2.80;99.90;;;;;;6189701;23;20243;-79
2024/01/07 02:44:34;;;;;;;4.22;1.60;;;-2.80;99.90;;;;;;6188665;23;20181;-81
2024/01/07 02:47:02;;;;;;;1.88;1.77;;;-2.90;99.90;;;;;;6189093;23;20185;-79
2024/01/07 02:49:29;;;;;;;3.72;3.45;;;-2.80;99.90;;;;;;6189535;23;20180;-79
2024/01/07 02:51:59;;;;;;;0.93;0.93;;;-2.90;99.90;;;;;;6190474;23;20401;-79
2024/01/07 02:54:27;;;;;;;3.05;2.85;;;-2.70;99.90;;;;;;6190756;23;20252;-79
2024/01/07 02:56:55;;;;;;;2.15;1.80;;;-2.70;99.90;;;;;;6191440;23;20208;-80
2024/01/07 02:59:22;;;;;;;1.80;1.70;;;-2.80;99.90;;;;;;6194056;23;20223;-80
2024/01/07 03:01:52;;;;;;;1.60;1.50;;;-2.80;99.90;;;;;;6196300;23;20259;-78
2024/01/07 03:04:21;;;;;;;2.92;2.70;;;-2.90;99.90;;;;;;6194974;23;20172;-83
2024/01/07 03:06:48;;;;;;;2.30;2.15;;;-2.80;99.90;;;;;;6200228;23;20208;-79
2024/01/07 03:09:15;;;;;;;2.05;1.55;;;-2.90;99.90;;;;;;6198022;23;20512;-79
2024/01/07 03:11:45;;;;;;;1.50;1.48;;;-2.90;99.90;;;;;;6192027;23;20260;-78
2024/01/07 03:14:12;;;;;;;6.13;4.50;;;-2.90;99.90;;;;;;6190707;23;20509;-79
2024/01/07 03:16:42;;;;;;;2.63;2.42;;;-2.90;99.90;;;;;;6191677;23;20191;-78
2024/01/07 03:19:10;;;;;;;0.65;0.65;;;-3.00;99.90;;;;;;6190483;23;20191;-81
2024/01/07 03:21:37;;;;;;;2.08;2.00;;;-3.00;99.90;;;;;;6189963;23;20748;-79
2024/01/07 03:24:05;;;;;;;2.83;2.63;;;-3.00;99.90;;;;;;6190982;23;20185;-79
2024/01/07 03:26:32;;;;;;;4.13;3.88;;;-2.90;99.90;;;;;;6190044;23;20185;-80
2024/01/07 03:29:01;;;;;;;1.05;1.05;;;-3.00;99.90;;;;;;6189808;23;20181;-82
2024/01/07 03:31:28;;;;;;;9.55;4.28;;;-3.00;99.90;;;;;;6189264;23;20485;-77
2024/01/07 03:33:56;;;;;;;3.03;2.90;;;-3.00;99.90;;;;;;6187991;23;20193;-77
2024/01/07 03:36:23;;;;;;;2.17;2.05;;;-3.00;99.90;;;;;;6187417;23;20212;-85
2024/01/07 03:38:52;;;;;;;1.33;1.33;;;-3.00;99.90;;;;;;6191115;23;20236;-82
2024/01/07 03:41:21;;;;;;;3.72;3.45;;;-3.00;99.90;;;;;;6190634;23;20504;-80
2024/01/07 03:43:49;;;;;;;1.73;1.63;;;-3.00;99.90;;;;;;6189781;23;20204;-79
2024/01/07 03:46:18;;;;;;;1.20;1.20;;;-3.00;99.90;;;;;;6191310;23;20173;-80
2024/01/07 03:48:46;;;;;;;4.70;4.30;;;-3.00;99.90;;;;;;6189617;23;20181;-81
2024/01/07 03:51:13;;;;;;;5.70;3.20;;;-3.00;99.90;;;;;;6191776;23;20428;-81
2024/01/07 03:53:41;;;;;;;1.30;1.20;;;-3.00;99.90;;;;;;6191105;23;20434;-81
2024/01/07 03:56:08;;;;;;;3.63;2.65;;;-2.90;99.90;;;;;;6191975;23;20185;-80
2024/01/07 03:58:39;;;;;;;1.88;1.45;;;-2.90;99.90;;;;;;6193137;23;20227;-82
2024/01/07 04:01:07;;;;;;;1.88;1.77;;;-2.80;99.90;;;;;;6192906;23;20361;-81
2024/01/07 04:03:35;;;;;;;3.25;2.15;;;-2.80;99.90;;;;;;6193684;23;20219;-80
2024/01/07 04:06:07;;;;;;;1.67;1.63;;;-2.80;99.90;;;;;;6194674;23;20200;-80
2024/01/07 04:08:35;;;;;;;2.72;2.53;;;-2.70;99.90;;;;;;6192164;23;20165;-79
2024/01/07 04:11:03;;;;;;;3.70;2.75;;;-2.70;99.90;;;;;;6194826;23;20248;-81
2024/01/07 04:13:30;;;;;;;2.08;1.98;;;-2.70;99.90;;;;;;6195234;23;20323;-81
2024/01/07 04:16:01;;;;;;;0.95;0.95;;;-2.70;99.90;;;;;;6196532;23;20382;-82
2024/01/07 04:18:29;;;;;;;0.40;0.40;;;-2.70;99.90;;;;;;6196166;23;20241;-82
2024/01/07 04:20:56;;;;;;;8.65;3.88;;;-2.70;99.90;;;;;;6195490;23;20469;-79
2024/01/07 04:23:25;;;;;;;1.10;1.10;;;-2.70;99.90;;;;;;6193349;23;20209;-81
2024/01/07 04:25:53;;;;;;;4.47;2.92;;;-2.70;99.90;;;;;;6193674;23;20193;-79
2024/01/07 04:28:21;;;;;;;0.98;0.98;;;-2.70;99.90;;;;;;6191493;23;20177;-78
2024/01/07 04:30:48;;;;;;;0.50;0.50;;;-2.70;99.90;;;;;;6191241;23;20212;-79
2024/01/07 04:33:17;;;;;;;1.05;1.00;;;-2.70;99.90;;;;;;6192184;23;20179;-81
2024/01/07 04:35:48;;;;;;;1.98;1.88;;;-2.70;99.90;;;;;;6192665;23;20200;-77
2024/01/07 04:38:15;;;;;;;0.50;0.50;;;-2.70;99.90;;;;;;6190293;23;20177;-81
2024/01/07 04:40:45;;;;;;;2.75;2.60;;;-2.70;99.90;;;;;;6193444;23;20181;-80
2024/01/07 04:43:12;;;;;;;2.53;2.42;;;-2.70;99.90;;;;;;6191122;23;20204;-81
2024/01/07 04:45:39;;;;;;;2.30;2.20;;;-2.70;99.90;;;;;;6192113;23;20185;-78
2024/01/07 04:48:08;;;;;;;3.63;3.33;;;-2.80;99.90;;;;;;6192308;23;20625;-80
2024/01/07 04:50:36;;;;;;;0.82;0.82;;;-2.80;99.90;;;;;;6191917;23;20185;-80
2024/01/07 04:53:03;;;;;;;1.60;1.50;;;-2.80;99.90;;;;;;6190220;23;20296;-79
2024/01/07 04:55:30;;;;;;;0.73;0.73;;;-2.90;99.90;;;;;;6198760;23;20186;-81
2024/01/07 04:57:57;;;;;;;1.25;1.25;;;-2.90;99.90;;;;;;6211500;23;20229;-80
2024/01/07 05:00:28;;;;;;;1.73;1.63;;;-2.90;99.90;;;;;;6192726;23;20177;-78
2024/01/07 05:02:55;;;;;;;0.88;0.88;;;-2.90;99.90;;;;;;6192898;23;20224;-80
2024/01/07 05:05:23;;;;;;;0.50;0.50;;;-2.90;99.90;;;;;;6193357;23;20247;-81
2024/01/07 05:07:51;;;;;;;3.58;1.65;;;-2.90;99.90;;;;;;6189978;23;20177;-81
2024/01/07 05:10:20;;;;;;;0.80;0.80;;;-2.80;99.90;;;;;;6190462;23;20192;-81
2024/01/07 05:12:48;;;;;;;0.88;0.88;;;-2.90;99.90;;;;;;6191277;23;20248;-85
2024/01/07 05:15:17;;;;;;;0.70;0.70;;;-3.00;99.90;;;;;;6194649;23;20176;-81
2024/01/07 05:17:44;;;;;;;1.05;0.93;;;-3.00;99.90;;;;;;6196004;23;20185;-82
2024/01/07 05:20:15;;;;;;;2.08;1.88;;;-3.00;99.90;;;;;;6193435;23;20189;-81
2024/01/07 05:22:42;;;;;;;0.60;0.60;;;-2.90;99.90;;;;;;6190660;23;20626;-86
2024/01/07 05:25:09;;;;;;;1.73;1.63;;;-2.90;99.90;;;;;;6191105;23;20209;-80
2024/01/07 05:27:36;;;;;;;2.53;2.42;;;-3.00;99.90;;;;;;6193968;23;20165;-84
2024/01/07 05:30:04;;;;;;;1.88;1.77;;;-2.90;99.90;;;;;;6190706;23;20189;-80
2024/01/07 05:32:31;;;;;;;1.95;1.85;;;-2.90;99.90;;;;;;6191509;23;20199;-81
2024/01/07 05:34:58;;;;;;;0.77;0.77;;;-3.00;99.90;;;;;;6191358;23;20240;-81
2024/01/07 05:37:31;;;;;;;1.48;1.48;;;-3.00;99.90;;;;;;6192759;23;20209;-84
2024/01/07 05:40:01;;;;;;;0.70;0.70;;;-3.00;99.90;;;;;;6192856;23;20187;-85
2024/01/07 05:42:28;;;;;;;2.55;2.35;;;-2.90;99.90;;;;;;6193925;23;20196;-79
2024/01/07 05:44:55;;;;;;;0.82;0.82;;;-3.00;99.90;;;;;;6195650;23;20181;-79
2024/01/07 05:47:22;;;;;;;3.15;1.33;;;-3.00;99.90;;;;;;6194108;23;20176;-80
2024/01/07 05:49:49;;;;;;;0.80;0.80;;;-3.10;99.90;;;;;;6211147;23;20192;-80
2024/01/07 05:52:16;;;;;;;2.60;2.40;;;-3.10;99.90;;;;;;6213940;23;20177;-81
2024/01/07 05:54:43;;;;;;;0.80;0.80;;;-3.00;99.90;;;;;;6214401;23;20181;-79
2024/01/07 05:57:11;;;;;;;13.18;4.10;;;-3.10;99.90;;;;;;6203679;23;20173;-80
2024/01/07 05:59:39;;;;;;;1.58;1.48;;;-3.10;99.90;;;;;;6196782;23;20183;-78
2024/01/07 06:02:06;;;;;;;1.80;1.70;;;-3.10;99.90;;;;;;6194295;23;20539;-80
2024/01/07 06:04:33;;;;;;;0.70;0.70;;;-3.10;99.90;;;;;;6194827;23;20240;-81
2024/01/07 06:07:00;;;;;;;1.05;1.05;;;-3.10;99.90;;;;;;6196308;23;20169;-78
2024/01/07 06:09:27;;;;;;;2.55;2.40;;;-3.10;99.90;;;;;;6196058;23;20177;-80
2024/01/07 06:11:55;;;;;;;0.80;0.80;;;-2.90;99.90;;;;;;6195596;23;20177;-81
2024/01/07 06:14:25;;;;;;;0.80;0.80;;;-3.10;99.90;;;;;;6195114;23;20176;-80
2024/01/07 06:16:52;;;;;;;2.25;1.55;;;-3.10;99.90;;;;;;6194341;23;20208;-80
2024/01/07 06:19:21;;;;;;;0.63;0.63;;;-3.10;99.90;;;;;;6193584;23;20207;-82
2024/01/07 06:21:48;;;;;;;1.15;1.15;;;-3.20;99.90;;;;;;6193906;23;20231;-80
2024/01/07 06:24:15;;;;;;;0.50;0.50;;;-3.20;99.90;;;;;;6194833;23;20188;-79
2024/01/07 06:26:42;;;;;;;2.67;2.40;;;-3.20;99.90;;;;;;6194459;23;20185;-83
2024/01/07 06:29:12;;;;;;;1.55;1.45;;;-3.20;99.90;;;;;;6194085;23;20177;-79
2024/01/07 06:31:45;;;;;;;3.55;3.20;;;-3.20;99.90;;;;;;6192890;23;20177;-79
2024/01/07 06:34:13;;;;;;;0.43;0.43;;;-3.20;99.90;;;;;;6193261;23;20188;-82
2024/01/07 06:36:41;;;;;;;2.72;2.53;;;-3.20;99.90;;;;;;6194280;23;20215;-81
2024/01/07 06:39:08;;;;;;;0.60;0.60;;;-3.20;99.90;;;;;;6195073;23;20342;-79
2024/01/07 06:41:35;;;;;;;3.15;2.78;;;-3.20;99.90;;;;;;6194348;23;20185;-83
2024/01/07 06:44:03;;;;;;;1.58;1.48;;;-3.20;99.90;;;;;;6195420;23;20232;-82
2024/01/07 06:46:30;;;;;;;1.67;1.58;;;-3.20;99.90;;;;;;6201205;23;20181;-81
2024/01/07 06:48:58;;;;;;;1.08;1.08;;;-3.20;99.90;;;;;;6198181;23;20177;-82
2024/01/07 06:51:25;;;;;;;0.88;0.88;;;-3.20;99.90;;;;;;6197816;23;20219;-82
2024/01/07 06:53:52;;;;;;;0.98;0.93;;;-3.20;99.90;;;;;;6195191;23;20229;-81
2024/01/07 06:56:19;;;;;;;1.08;1.08;;;-3.20;99.90;;;;;;6200424;23;20204;-84
2024/01/07 06:58:47;;;;;;;5.10;4.70;;;-3.20;99.90;;;;;;6197369;23;20177;-86
2024/01/07 07:01:19;;;;;;;2.25;2.15;;;-3.20;99.90;;;;;;6198676;23;20200;-84
2024/01/07 07:03:46;;;;;;;0.50;0.50;;;-3.30;99.90;;;;;;6200035;23;20217;-83
2024/01/07 07:06:13;;;;;;;0.68;0.68;;;-3.30;99.90;;;;;;6194983;23;20180;-86
2024/01/07 07:08:40;;;;;;;0.93;0.93;;;-3.20;99.90;;;;;;6195871;23;20496;-87
2024/01/07 07:11:07;;;;;;;1.77;1.75;;;-3.10;99.90;;;;;;6199932;23;20187;-85
2024/01/07 07:13:35;;;;;;;0.70;0.70;;;-3.40;99.90;;;;;;6203168;23;20198;-83
2024/01/07 07:16:02;;;;;;;1.02;1.02;;;-3.40;99.90;;;;;;6194943;23;20239;-86
2024/01/07 07:18:28;;;;;;;0.40;0.40;;;-3.40;99.90;;;;;;6193511;23;20235;-80
2024/01/07 07:20:56;;;;;;;1.80;1.10;;;-3.30;99.90;;;;;;6195531;23;20177;-80
2024/01/07 07:23:23;;;;;;;0.57;0.57;;;-3.30;99.90;;;;;;6196350;23;20576;-79
2024/01/07 07:25:50;;;;;;;1.67;1.58;;;-3.30;99.90;;;;;;6194677;23;20177;-80
2024/01/07 07:28:17;;;;;;;2.45;2.25;;;-3.30;99.90;;;;;;6195067;23;20211;-81
2024/01/07 07:30:44;;;;;;;1.42;1.25;;;-3.30;99.90;;;;;;6194925;23;20184;-82
2024/01/07 07:33:15;;;;;;;2.35;2.15;;;-3.30;99.90;;;;;;6195624;23;20180;-81
2024/01/07 07:35:42;;;;;;;0.70;0.70;;;-3.30;99.90;;;;;;6198368;23;20199;-80
2024/01/07 07:38:09;;;;;;;4.72;3.63;;;-3.30;99.90;;;;;;6204872;23;20177;-82
2024/01/07 07:40:36;;;;;;;0.85;0.85;;;-3.30;99.90;;;;;;6200039;23;20165;-81
2024/01/07 07:43:04;;;;;;;6.55;2.15;;;-3.30;99.90;;;;;;6201540;23;20443;-79
2024/01/07 07:45:31;;;;;;;0.50;0.50;;;-3.40;99.90;;;;;;6194781;23;20173;-83
2024/01/07 07:47:58;;;;;;;0.95;0.95;;;-3.40;99.90;;;;;;6195032;23;20188;-79
2024/01/07 07:50:25;;;;;;;0.50;0.50;;;-3.40;99.90;;;;;;6194306;23;20180;-81
2024/01/07 07:52:53;;;;;;;0.50;0.50;;;-3.40;99.90;;;;;;6195242;23;20180;-86
2024/01/07 07:55:20;;;;;;;0.95;0.85;;;-3.30;99.90;;;;;;6195303;23;20493;-84
2024/01/07 07:57:47;;;;;;;0.50;0.50;;;-3.30;99.90;;;;;;6195854;23;20177;-83
2024/01/07 08:00:15;;;;;;;0.50;0.50;;;-3.40;99.90;;;;;;6193917;23;20173;-84
2024/01/07 08:02:42;;;;;;;1.55;1.48;;;-3.40;99.90;;;;;;6197185;23;20185;-86
2024/01/07 08:05:09;;;;;;;0.50;0.50;;;-3.50;99.90;;;;;;6172353;23;20176;-79
2024/01/07 08:07:36;;;;;;;2.08;1.98;;;-3.50;99.90;;;;;;6195040;23;20240;-86
2024/01/07 08:10:04;;;;;;;1.55;1.50;;;-3.50;99.90;;;;;;6196384;23;20595;-84
2024/01/07 08:12:31;;;;;;;1.58;1.48;;;-3.50;99.90;;;;;;6198629;23;20177;-82
2024/01/07 08:14:58;;;;;;;0.90;0.90;;;-3.50;99.90;;;;;;6202261;23;20200;-86
2024/01/07 08:17:25;;;;;;;0.70;0.70;;;-3.50;99.90;;;;;;6199185;23;20211;-85
2024/01/07 08:19:55;;;;;;;0.70;0.70;;;-3.40;99.90;;;;;;6197114;23;20215;-84
2024/01/07 08:22:22;;;;;;;0.85;0.85;;;-3.40;99.90;;;;;;6196669;23;20184;-85
2024/01/07 08:24:50;;;;;;;2.05;1.48;;;-3.40;99.90;;;;;;6195703;23;20381;-82
2024/01/07 08:27:17;;;;;;;1.05;1.02;;;-3.30;99.90;;;;;;6196228;23;20180;-84
2024/01/07 08:29:44;;;;;;;0.90;0.90;;;-3.20;99.90;;;;;;6195411;23;20278;-84
2024/01/07 08:32:12;;;;;;;0.85;0.85;;;-3.00;99.90;;;;;;6192265;23;20177;-84
2024/01/07 08:34:42;;;;;;;1.50;1.40;;;-3.00;99.90;;;;;;6199270;23;20165;-86
2024/01/07 08:37:09;;;;;;;1.48;1.48;;;-3.00;99.90;;;;;;6204712;23;20176;-84
2024/01/07 08:39:36;;;;;;;0.77;0.77;;;-3.20;99.90;;;;;;6201113;23;20453;-83
2024/01/07 08:42:04;;;;;;;0.70;0.70;;;-3.00;99.90;;;;;;6194721;23;20185;-85
2024/01/07 08:44:31;;;;;;;0.40;0.40;;;-2.80;99.90;;;;;;6192605;23;20227;-85
2024/01/07 08:47:00;;;;;;;0.75;0.75;;;-2.70;99.90;;;;;;6193345;23;20257;-84
2024/01/07 08:49:29;;;;;;;0.70;0.70;;;-2.80;99.90;;;;;;6194382;23;20183;-82
2024/01/07 08:51:57;;;;;;;1.45;1.35;;;-2.80;99.90;;;;;;6195353;23;20212;-86
2024/01/07 08:54:25;;;;;;;1.27;1.23;;;-3.00;99.90;;;;;;6194698;23;20196;-81
2024/01/07 08:56:53;;;;;;;0.85;0.85;;;-3.10;99.90;;;;;;6195049;23;20346;-84
2024/01/07 08:59:21;;;;;;;0.65;0.65;;;-2.70;99.90;;;;;;6195817;23;20223;-83
2024/01/07 09:01:48;;;;;;;33.40;3.03;;;-2.60;99.90;;;;;;6194230;23;20532;-82
2024/01/07 09:04:17;;;;;;;1.67;1.58;;;-2.50;99.90;;;;;;6196037;23;20651;-82
2024/01/07 09:06:45;;;;;;;1.75;1.65;;;-2.40;99.90;;;;;;6195806;23;20204;-83
2024/01/07 09:09:12;;;;;;;1.63;1.52;;;-2.70;99.90;;;;;;6193628;23;20183;-85
2024/01/07 09:11:39;;;;;;;0.50;0.50;;;-2.60;99.90;;;;;;6194722;23;20177;-81
2024/01/07 09:14:06;;;;;;;0.98;0.98;;;-2.40;99.90;;;;;;6198190;23;20173;-85
2024/01/07 09:16:33;;;;;;;0.73;0.73;;;-2.50;99.90;;;;;;6195596;23;20500;-82
2024/01/07 09:19:00;;;;;;;1.33;1.33;;;-2.60;99.90;;;;;;6195773;23;20196;-81
2024/01/07 09:21:27;;;;;;;0.60;0.60;;;-2.60;99.90;;;;;;6196257;23;20177;-80
2024/01/07 09:23:54;;;;;;;2.13;2.00;;;-2.40;99.90;;;;;;6196918;23;20261;-85
2024/01/07 09:26:21;;;;;;;0.82;0.82;;;-2.10;99.90;;;;;;6195161;23;20200;-83
2024/01/07 09:28:48;;;;;;;1.35;1.23;;;-2.30;99.90;;;;;;6195121;23;20206;-84
2024/01/07 09:31:16;;;;;;;0.82;0.82;;;-2.20;99.90;;;;;;6198635;23;20177;-86
2024/01/07 09:33:43;;;;;;;1.95;1.88;;;-2.10;99.90;;;;;;6197493;23;20215;-86
2024/01/07 09:36:11;;;;;;;1.35;1.25;;;-2.50;99.90;;;;;;6197590;23;20245;-84
2024/01/07 09:38:54;;;;;;;0.50;0.50;;;-2.50;99.90;;;;;;6195079;23;20216;-82
2024/01/07 09:41:21;;;;;;;2.33;2.17;;;-2.40;99.90;;;;;;6198467;23;20183;-87
2024/01/07 09:43:51;;;;;;;1.95;1.67;;;-2.30;99.90;;;;;;6203474;23;20197;-85
2024/01/07 09:46:22;;;;;;;0.93;0.93;;;-2.20;99.90;;;;;;6203564;23;20184;-87
2024/01/07 09:48:50;;;;;;;0.85;0.85;;;-2.00;99.90;;;;;;6196621;23;20184;-89
2024/01/07 09:51:22;;;;;;;1.77;1.65;;;-1.90;99.90;;;;;;6201031;23;20212;-88
2024/01/07 09:53:58;;;;;;;0.73;0.73;;;-2.20;99.90;;;;;;6196562;23;20177;-87
2024/01/07 09:56:28;;;;;;;3.85;3.63;;;-2.50;99.90;;;;;;6197847;23;20168;-87
2024/01/07 09:58:55;;;;;;;1.45;1.45;;;-2.60;99.90;;;;;;6198833;23;20189;-88
2024/01/07 10:01:24;;;;;;;3.45;2.58;;;-2.70;99.90;;;;;;6200734;23;20236;-85
2024/01/07 10:03:51;;;;;;;1.00;1.00;;;-2.70;99.90;;;;;;6199480;23;20208;-84
2024/01/07 10:06:21;;;;;;;2.47;1.58;;;-2.90;99.90;;;;;;6200340;23;20181;-87
2024/01/07 10:08:49;;;;;;;0.50;0.50;;;-2.90;99.90;;;;;;6205800;23;20169;-85
2024/01/07 10:11:17;;;;;;;0.50;0.50;;;-3.10;99.90;;;;;;6212143;23;20162;-86
2024/01/07 10:13:51;;;;;;;0.80;0.80;;;-3.10;99.90;;;;;;6206336;23;20177;-85
2024/01/07 10:16:18;;;;;;;0.40;0.40;;;-3.00;99.90;;;;;;6206309;23;20208;-84
2024/01/07 10:18:47;;;;;;;0.40;0.40;;;-2.80;99.90;;;;;;6206665;23;20173;-87
2024/01/07 10:21:15;;;;;;;0.65;0.65;;;-3.10;99.90;;;;;;6210870;23;20177;-88
2024/01/07 10:23:42;;;;;;;2.00;1.77;;;-3.00;99.90;;;;;;6210239;23;20197;-88
2024/01/07 10:26:09;;;;;;;1.63;1.10;;;-2.90;99.90;;;;;;6184768;23;20169;-87
2024/01/07 10:28:49;;;;;;;0.80;0.80;;;-3.10;99.90;;;;;;6188508;23;20196;-88
2024/01/07 10:31:17;;;;;;;0.98;0.98;;;-3.10;99.90;;;;;;6199912;23;20184;-85
2024/01/07 10:33:44;;;;;;;1.15;1.15;;;-3.30;99.90;;;;;;6200261;23;20211;-85
2024/01/07 10:36:13;;;;;;;1.02;1.02;;;-3.10;99.90;;;;;;6208558;23;20196;-84
2024/01/07 10:38:41;;;;;;;0.95;0.95;;;-3.40;99.90;;;;;;6211953;23;20165;-88
2024/01/07 10:41:11;;;;;;;1.35;1.25;;;-3.30;99.90;;;;;;6212414;23;20181;-85
2024/01/07 10:43:41;;;;;;;0.50;0.50;;;-3.20;99.90;;;;;;6213742;23;20185;-86
2024/01/07 10:46:11;;;;;;;1.08;1.08;;;-3.30;99.90;;;;;;6188031;23;20226;-86
2024/01/07 10:48:50;;;;;;;1.25;1.00;;;-3.10;99.90;;;;;;6200523;23;20216;-85
2024/01/07 10:51:20;;;;;;;0.68;0.68;;;-3.00;99.90;;;;;;6206771;23;20165;-85
2024/01/07 10:53:55;;;;;;;19.13;3.13;;;-3.30;99.90;;;;;;6203091;23;20164;-90
2024/01/07 10:56:24;;;;;;;0.77;0.77;;;-3.10;99.90;;;;;;6181691;23;20161;-85
2024/01/07 10:58:52;;;;;;;0.40;0.40;;;-3.10;99.90;;;;;;6201552;23;20181;-86
2024/01/07 11:01:21;;;;;;;0.40;0.40;;;-3.20;99.90;;;;;;6172048;23;20181;-90
2024/01/07 11:04:00;;;;;;;3.53;3.15;;;-3.30;99.90;;;;;;6172032;23;20404;-84
2024/01/07 11:06:51;;;;;;;3.42;3.13;;;-3.30;99.90;;;;;;6199640;23;20404;-86
2024/01/07 11:09:54;;;;;;;0.90;0.90;;;-3.40;99.90;;;;;;6196549;23;20184;-85
2024/01/07 11:12:22;;;;;;;0.77;0.77;;;-3.40;99.90;;;;;;6200888;23;20160;-83
2024/01/07 11:14:52;;;;;;;5.07;1.67;;;-3.30;99.90;;;;;;6199335;23;20177;-83
2024/01/07 11:17:32;;;;;;;1.15;1.15;;;-3.40;99.90;;;;;;6200293;23;20351;-85
2024/01/07 11:20:07;;;;;;;0.68;0.68;;;-3.70;99.90;;;;;;6198210;23;20184;-84
2024/01/07 11:22:34;;;;;;;2.15;2.05;;;-3.50;99.90;;;;;;6175162;23;20203;-87
2024/01/07 11:25:05;;;;;;;1.15;1.15;;;-3.40;99.90;;;;;;6175524;23;20417;-86
2024/01/07 11:27:32;;;;;;;0.80;0.80;;;-3.50;99.90;;;;;;6179895;23;20473;-86
2024/01/07 11:30:20;;;;;;;0.60;0.60;;;-3.50;99.90;;;;;;6185940;23;20181;-82
2024/01/07 11:32:47;;;;;;;1.25;1.25;;;-3.80;99.90;;;;;;6204881;23;20243;-83
2024/01/07 11:35:44;;;;;;;1.40;1.40;;;-3.30;99.90;;;;;;6205448;23;20476;-83
2024/01/07 11:38:11;;;;;;;0.93;0.93;;;-3.70;99.90;;;;;;6175182;23;20176;-82
2024/01/07 11:40:38;;;;;;;0.75;0.75;;;-3.60;99.90;;;;;;6199720;23;20241;-85
2024/01/07 11:43:05;;;;;;;1.70;1.60;;;-3.70;99.90;;;;;;6201032;23;20228;-85
2024/01/07 11:45:33;;;;;;;0.80;0.80;;;-3.60;99.90;;;;;;6201047;23;20197;-85
2024/01/07 11:48:00;;;;;;;0.90;0.90;;;-3.50;99.90;;;;;;6201029;23;20476;-85
2024/01/07 11:50:35;;;;;;;2.50;2.35;;;-3.60;99.90;;;;;;6174356;23;20169;-87
2024/01/07 11:53:02;;;;;;;2.35;2.15;;;-3.50;99.90;;;;;;6175456;23;20200;-86
2024/01/07 11:55:32;;;;;;;2.85;2.63;;;-3.80;99.90;;;;;;6199977;23;20188;-85
2024/01/07 11:58:02;;;;;;;1.60;1.50;;;-3.90;99.90;;;;;;6173729;23;20166;-84
2024/01/07 12:00:34;;;;;;;2.60;2.42;;;-4.00;99.90;;;;;;6172677;23;20232;-86
2024/01/07 12:03:03;;;;;;;10.20;3.65;;;-4.30;99.90;;;;;;6198318;23;20364;-84
2024/01/07 12:05:31;;;;;;;0.50;0.50;;;-4.30;99.90;;;;;;6199963;23;20221;-83
2024/01/07 12:08:05;;;;;;;4.10;2.53;;;-4.20;99.90;;;;;;6197347;23;20519;-84
2024/01/07 12:10:33;;;;;;;2.30;1.42;;;-4.20;99.90;;;;;;6204286;23;20183;-82
2024/01/07 12:13:03;;;;;;;1.77;1.67;;;-4.20;99.90;;;;;;6184718;23;20197;-82
2024/01/07 12:15:32;;;;;;;0.40;0.40;;;-4.10;99.90;;;;;;6208260;23;20161;-86
2024/01/07 12:18:01;;;;;;;2.75;2.25;;;-4.10;99.90;;;;;;6208296;23;20187;-86
2024/01/07 12:20:29;;;;;;;2.88;2.67;;;-4.10;99.90;;;;;;6204544;23;20188;-84
2024/01/07 12:23:07;;;;;;;3.25;2.90;;;-4.20;99.90;;;;;;6202502;23;20181;-82
2024/01/07 12:25:34;;;;;;;1.40;1.30;;;-4.40;99.90;;;;;;6174321;23;20205;-84
2024/01/07 12:28:02;;;;;;;1.45;1.35;;;-4.80;99.90;;;;;;6173364;23;20181;-87
2024/01/07 12:30:30;;;;;;;0.85;0.85;;;-4.60;99.90;;;;;;6173387;23;20240;-81
2024/01/07 12:32:58;;;;;;;3.60;1.92;;;-4.50;99.90;;;;;;6198247;23;20188;-84
2024/01/07 12:35:29;;;;;;;3.33;2.33;;;-4.40;99.90;;;;;;6172147;23;20208;-84
2024/01/07 12:37:56;;;;;;;1.60;1.50;;;-4.50;99.90;;;;;;6174543;23;20195;-86
2024/01/07 12:40:24;;;;;;;5.38;3.70;;;-4.50;99.90;;;;;;6200590;23;20208;-85
2024/01/07 12:42:52;;;;;;;9.88;4.20;;;-4.50;99.90;;;;;;6199416;23;20200;-85
2024/01/07 12:45:22;;;;;;;3.72;1.20;;;-4.60;99.90;;;;;;6201002;23;20193;-84
2024/01/07 12:47:49;;;;;;;1.55;1.45;;;-4.40;99.90;;;;;;6173968;23;20180;-84
2024/01/07 12:50:18;;;;;;;1.98;1.88;;;-4.70;99.90;;;;;;6201184;23;20286;-87
2024/01/07 12:52:45;;;;;;;1.40;1.33;;;-4.60;99.90;;;;;;6173894;23;20200;-86